createdAt,value
2019-02-28T00:01:57.964Z,9.28
2019-02-28T00:04:01.795Z,10.15
2019-02-28T00:06:05.974Z,9.83
2019-02-28T00:08:10.200Z,10.38
2019-02-28T00:10:14.301Z,10.03
2019-02-28T00:12:18.141Z,10.23
2019-02-28T00:14:22.318Z,9.73
2019-02-28T00:16:26.433Z,9.88
2019-02-28T00:18:30.251Z,9.80
2019-02-28T00:20:36.536Z,10.75
2019-02-28T00:22:43.056Z,9.85
2019-02-28T00:24:47.282Z,9.10
2019-02-28T00:26:51.488Z,10.35
2019-02-28T00:28:57.002Z,10.85
2019-02-28T00:31:01.668Z,10.30
2019-02-28T00:33:05.885Z,11.05
2019-02-28T00:35:12.953Z,10.10
2019-02-28T00:37:17.790Z,10.80
2019-02-28T00:39:21.988Z,11.00
2019-02-28T00:41:27.634Z,10.90
2019-02-28T00:43:31.828Z,10.78
2019-02-28T00:45:37.205Z,10.60
2019-02-28T00:47:42.099Z,10.75
2019-02-28T00:49:45.923Z,10.68
2019-02-28T00:51:49.747Z,9.93
2019-02-28T00:53:53.914Z,9.40
2019-02-28T00:55:58.043Z,10.38
2019-02-28T00:58:02.243Z,10.18
2019-02-28T01:00:09.416Z,10.05
2019-02-28T01:02:13.538Z,10.30
2019-02-28T01:04:17.402Z,10.60
2019-02-28T01:06:21.510Z,9.90
2019-02-28T01:08:25.871Z,10.80
2019-02-28T01:10:30.087Z,11.05
2019-02-28T01:12:34.174Z,11.15
2019-02-28T01:14:38.515Z,10.15
2019-02-28T01:16:42.318Z,11.30
2019-02-28T01:18:46.624Z,10.85
2019-02-28T01:20:50.848Z,10.85
2019-02-28T01:22:54.964Z,10.58
2019-02-28T01:24:59.070Z,10.88
2019-02-28T01:27:03.164Z,10.95
2019-02-28T01:29:07.016Z,10.88
2019-02-28T01:31:11.587Z,10.95
2019-02-28T01:33:16.412Z,11.00
2019-02-28T01:35:22.096Z,11.08
2019-02-28T01:37:26.286Z,10.30
2019-02-28T01:39:33.292Z,11.43
2019-02-28T01:41:37.126Z,11.33
2019-02-28T01:43:40.957Z,11.10
2019-02-28T01:45:45.189Z,11.57
2019-02-28T01:47:51.753Z,11.57
2019-02-28T01:49:57.762Z,12.10
2019-02-28T01:52:01.289Z,12.43
2019-02-28T01:54:05.506Z,11.78
2019-02-28T01:56:09.338Z,12.33
2019-02-28T01:58:16.394Z,12.00
2019-02-28T02:00:19.476Z,11.33
2019-02-28T02:02:23.555Z,11.80
2019-02-28T02:04:27.686Z,11.57
2019-02-28T02:06:34.666Z,11.90
2019-02-28T02:08:38.789Z,11.97
2019-02-28T02:10:42.990Z,11.93
2019-02-28T02:12:47.116Z,12.13
2019-02-28T02:14:53.574Z,12.20
2019-02-28T02:17:01.047Z,12.55
2019-02-28T02:19:06.818Z,12.58
2019-02-28T02:21:10.938Z,13.78
2019-02-28T02:23:17.837Z,12.80
2019-02-28T02:25:21.004Z,13.08
2019-02-28T02:27:26.365Z,12.93
2019-02-28T02:29:36.051Z,13.35
2019-02-28T02:31:37.735Z,13.30
2019-02-28T02:33:41.965Z,13.45
2019-02-28T02:35:46.147Z,11.65
2019-02-28T02:37:50.377Z,12.37
2019-02-28T02:39:54.217Z,12.37
2019-02-28T02:41:58.385Z,12.05
2019-02-28T02:44:04.013Z,13.40
2019-02-28T02:46:08.672Z,13.08
2019-02-28T02:48:12.871Z,13.65
2019-02-28T02:50:16.744Z,12.30
2019-02-28T02:52:25.560Z,13.62
2019-02-28T02:54:26.466Z,14.25
2019-02-28T02:56:30.935Z,13.43
2019-02-28T02:58:35.049Z,13.95
2019-02-28T03:00:38.922Z,13.28
2019-02-28T03:02:43.064Z,13.65
2019-02-28T03:04:46.900Z,13.88
2019-02-28T03:06:51.078Z,13.88
2019-02-28T03:08:55.217Z,13.18
2019-02-28T03:10:59.032Z,14.10
2019-02-28T03:13:04.856Z,13.83
2019-02-28T03:15:11.678Z,13.40
2019-02-28T03:17:15.833Z,13.40
2019-02-28T03:19:19.931Z,14.50
2019-02-28T03:21:24.049Z,14.68
2019-02-28T03:23:38.151Z,14.55
2019-02-28T03:25:36.380Z,14.07
2019-02-28T03:27:40.679Z,14.10
2019-02-28T03:29:44.940Z,13.93
2019-02-28T03:31:56.636Z,12.65
2019-02-28T03:33:54.954Z,15.38
2019-02-28T03:35:58.797Z,13.75
2019-02-28T03:38:10.187Z,13.80
2019-02-28T03:40:11.269Z,13.58
2019-02-28T03:42:15.483Z,13.58
2019-02-28T03:44:21.624Z,13.45
2019-02-28T03:46:25.457Z,14.75
2019-02-28T03:48:34.693Z,12.70
2019-02-28T03:50:35.229Z,13.70
2019-02-28T03:52:43.738Z,15.00
2019-02-28T03:54:45.545Z,14.43
2019-02-28T03:56:52.779Z,14.65
2019-02-28T03:58:55.339Z,14.13
2019-02-28T04:00:59.463Z,14.70
2019-02-28T04:03:03.670Z,14.85
2019-02-28T04:05:08.889Z,15.28
2019-02-28T04:07:15.980Z,13.60
2019-02-28T04:09:18.539Z,14.83
2019-02-28T04:11:22.983Z,14.65
2019-02-28T04:13:28.580Z,15.68
2019-02-28T04:15:32.719Z,16.42
2019-02-28T04:17:36.833Z,15.08
2019-02-28T04:19:41.477Z,14.47
2019-02-28T04:21:46.567Z,16.15
2019-02-28T04:23:51.225Z,15.50
2019-02-28T04:25:57.013Z,16.07
2019-02-28T04:28:03.349Z,16.23
2019-02-28T04:30:12.648Z,14.40
2019-02-28T04:32:16.488Z,16.00
2019-02-28T04:34:20.330Z,16.60
2019-02-28T04:36:24.490Z,15.60
2019-02-28T04:38:28.325Z,14.30
2019-02-28T04:40:32.177Z,15.72
2019-02-28T04:42:37.284Z,15.78
2019-02-28T04:44:41.929Z,16.25
2019-02-28T04:46:46.026Z,15.83
2019-02-28T04:48:49.839Z,15.38
2019-02-28T04:50:53.965Z,16.23
2019-02-28T04:52:57.814Z,17.48
2019-02-28T04:55:02.623Z,16.12
2019-02-28T04:57:07.825Z,16.85
2019-02-28T04:59:12.035Z,18.00
2019-02-28T05:01:15.871Z,18.23
2019-02-28T05:03:20.058Z,17.42
2019-02-28T05:05:24.177Z,18.42
2019-02-28T05:07:29.689Z,19.87
2019-02-28T05:09:34.326Z,20.68
2019-02-28T05:11:38.453Z,18.32
2019-02-28T05:13:45.320Z,17.60
2019-02-28T05:15:48.201Z,17.98
2019-02-28T05:17:53.137Z,19.70
2019-02-28T05:19:58.171Z,18.80
2019-02-28T05:22:02.374Z,17.57
2019-02-28T05:24:07.761Z,18.77
2019-02-28T05:26:12.427Z,19.02
2019-02-28T05:28:16.543Z,19.55
2019-02-28T05:30:20.754Z,18.65
2019-02-28T05:32:24.587Z,18.98
2019-02-28T05:34:28.764Z,17.85
2019-02-28T05:36:34.560Z,18.37
2019-02-28T05:38:38.939Z,17.57
2019-02-28T05:40:43.049Z,19.17
2019-02-28T05:42:46.893Z,18.45
2019-02-28T05:44:51.077Z,19.37
2019-02-28T05:46:57.631Z,18.87
2019-02-28T05:49:00.816Z,19.27
2019-02-28T05:51:04.937Z,17.55
2019-02-28T05:53:09.981Z,18.07
2019-02-28T05:55:13.948Z,18.32
2019-02-28T05:57:18.099Z,18.40
2019-02-28T05:59:26.150Z,20.17
2019-02-28T06:01:27.493Z,18.32
2019-02-28T06:03:31.743Z,19.62
2019-02-28T06:05:35.582Z,17.87
2019-02-28T06:07:39.765Z,19.57
2019-02-28T06:09:45.537Z,18.45
2019-02-28T06:11:49.145Z,19.73
2019-02-28T06:13:53.547Z,19.00
2019-02-28T06:15:57.449Z,19.15
2019-02-28T06:18:01.299Z,17.77
2019-02-28T06:20:08.523Z,24.02
2019-02-28T06:22:12.624Z,23.40
2019-02-28T06:24:16.745Z,21.90
2019-02-28T06:26:21.045Z,19.45
2019-02-28T06:28:27.621Z,20.05
2019-02-28T06:30:31.413Z,20.23
2019-02-28T06:32:35.525Z,23.90
2019-02-28T06:34:42.291Z,20.40
2019-02-28T06:36:45.495Z,21.25
2019-02-28T06:38:51.532Z,19.77
2019-02-28T06:40:55.148Z,20.62
2019-02-28T06:42:58.993Z,20.57
2019-02-28T06:45:03.791Z,19.35
2019-02-28T06:47:07.993Z,21.55
2019-02-28T06:49:12.209Z,20.57
2019-02-28T06:51:17.545Z,21.23
2019-02-28T06:53:21.485Z,19.82
2019-02-28T06:55:27.299Z,20.90
2019-02-28T06:57:33.119Z,20.70
2019-02-28T06:59:39.033Z,21.75
2019-02-28T07:01:43.931Z,20.82
2019-02-28T07:03:53.434Z,20.77
2019-02-28T07:05:57.651Z,21.37
2019-02-28T07:08:01.073Z,19.70
2019-02-28T07:10:09.648Z,20.52
2019-02-28T07:12:14.199Z,20.23
2019-02-28T07:14:19.564Z,20.62
2019-02-28T07:16:23.786Z,21.00
2019-02-28T07:18:27.619Z,21.85
2019-02-28T07:20:35.087Z,22.73
2019-02-28T07:22:37.020Z,23.05
2019-02-28T07:24:41.251Z,22.02
2019-02-28T07:26:45.353Z,22.60
2019-02-28T07:28:49.154Z,22.07
2019-02-28T07:30:52.994Z,23.87
2019-02-28T07:32:57.143Z,22.58
2019-02-28T07:35:01.001Z,24.45
2019-02-28T07:37:05.527Z,24.02
2019-02-28T07:39:09.687Z,26.17
2019-02-28T07:41:13.916Z,25.68
2019-02-28T07:43:18.100Z,25.15
2019-02-28T07:45:22.216Z,24.70
2019-02-28T07:47:26.325Z,24.07
2019-02-28T07:49:35.888Z,22.87
2019-02-28T07:51:37.561Z,23.87
2019-02-28T07:53:42.085Z,24.27
2019-02-28T07:55:46.011Z,24.12
2019-02-28T07:57:53.213Z,24.05
2019-02-28T07:59:56.010Z,24.65
2019-02-28T08:02:03.280Z,24.52
2019-02-28T08:04:06.080Z,23.57
2019-02-28T08:06:11.939Z,24.47
2019-02-28T08:08:15.475Z,24.57
2019-02-28T08:10:33.260Z,24.77
2019-02-28T08:12:37.438Z,25.82
2019-02-28T08:14:43.548Z,23.83
2019-02-28T08:16:47.531Z,23.67
2019-02-28T08:18:52.442Z,25.25
2019-02-28T08:20:56.494Z,25.08
2019-02-28T08:23:00.693Z,24.75
2019-02-28T08:25:07.772Z,23.70
2019-02-28T08:27:12.191Z,25.55
2019-02-28T08:29:16.383Z,24.57
2019-02-28T08:31:20.495Z,24.72
2019-02-28T08:33:24.609Z,23.75
2019-02-28T08:35:34.996Z,24.52
2019-02-28T08:37:38.670Z,24.23
2019-02-28T08:39:42.900Z,23.83
2019-02-28T08:41:46.988Z,25.15
2019-02-28T08:43:51.092Z,25.60
2019-02-28T08:45:55.217Z,26.07
2019-02-28T08:47:59.431Z,25.88
2019-02-28T08:50:03.631Z,24.15
2019-02-28T08:52:07.447Z,25.72
2019-02-28T08:54:11.536Z,27.37
2019-02-28T08:56:15.783Z,27.37
2019-02-28T08:58:19.981Z,27.55
2019-02-28T09:00:31.346Z,25.88
2019-02-28T09:02:30.472Z,27.37
2019-02-28T09:04:40.934Z,26.82
2019-02-28T09:06:41.037Z,25.43
2019-02-28T09:08:45.515Z,27.13
2019-02-28T09:10:49.669Z,27.10
2019-02-28T09:12:53.867Z,26.50
2019-02-28T09:14:58.976Z,25.92
2019-02-28T09:17:05.648Z,27.67
2019-02-28T09:19:12.364Z,26.57
2019-02-28T09:21:18.283Z,27.17
2019-02-28T09:23:23.470Z,28.95
2019-02-28T09:25:27.476Z,28.80
2019-02-28T09:27:35.278Z,27.77
2019-02-28T09:29:44.374Z,27.10
2019-02-28T09:31:48.160Z,26.52
2019-02-28T09:33:51.964Z,27.27
2019-02-28T09:35:57.356Z,26.95
2019-02-28T09:38:06.382Z,27.73
2019-02-28T09:40:14.759Z,28.30
2019-02-28T09:42:18.852Z,28.07
2019-02-28T09:44:22.965Z,27.48
2019-02-28T09:46:27.177Z,25.00
2019-02-28T09:48:34.020Z,26.97
2019-02-28T09:50:39.688Z,27.17
2019-02-28T09:52:43.800Z,28.27
2019-02-28T09:54:47.919Z,27.73
2019-02-28T09:56:52.139Z,26.42
2019-02-28T09:58:56.343Z,25.65
2019-02-28T10:01:00.263Z,26.85
2019-02-28T10:03:04.489Z,27.22
2019-02-28T10:05:11.828Z,27.40
2019-02-28T10:07:16.958Z,27.47
2019-02-28T10:09:20.783Z,27.53
2019-02-28T10:11:24.691Z,27.93
2019-02-28T10:13:28.511Z,25.97
2019-02-28T10:15:32.394Z,27.47
2019-02-28T10:17:35.940Z,28.43
2019-02-28T10:19:45.623Z,25.80
2019-02-28T10:21:51.691Z,25.50
2019-02-28T10:23:53.398Z,27.03
2019-02-28T10:25:56.222Z,28.30
2019-02-28T10:28:02.685Z,26.60
2019-02-28T10:30:09.558Z,26.93
2019-02-28T10:32:13.382Z,27.10
2019-02-28T10:34:17.282Z,25.87
2019-02-28T10:36:21.056Z,27.43
2019-02-28T10:38:26.365Z,27.00
2019-02-28T10:40:33.624Z,27.53
2019-02-28T10:42:40.269Z,26.80
2019-02-28T10:44:42.742Z,26.13
2019-02-28T10:46:46.638Z,26.27
2019-02-28T10:48:53.332Z,25.43
2019-02-28T10:50:57.214Z,25.93
2019-02-28T10:53:03.997Z,26.37
2019-02-28T10:55:09.824Z,25.50
2019-02-28T10:57:13.618Z,26.23
2019-02-28T10:59:17.167Z,26.03
2019-02-28T11:01:20.876Z,24.43
2019-02-28T11:03:24.429Z,24.77
2019-02-28T11:05:33.667Z,26.07
2019-02-28T11:07:38.662Z,26.00
2019-02-28T11:09:42.510Z,26.57
2019-02-28T11:11:46.286Z,26.43
2019-02-28T11:13:50.306Z,25.37
2019-02-28T11:15:55.541Z,27.43
2019-02-28T11:17:59.464Z,24.17
2019-02-28T11:20:03.660Z,25.30
2019-02-28T11:22:07.582Z,24.83
2019-02-28T11:24:11.487Z,25.17
2019-02-28T11:26:15.403Z,24.73
2019-02-28T11:28:20.937Z,26.23
2019-02-28T11:30:29.651Z,23.93
2019-02-28T11:32:33.650Z,24.97
2019-02-28T11:34:37.564Z,25.63
2019-02-28T11:36:41.372Z,22.40
2019-02-28T11:38:45.284Z,23.20
2019-02-28T11:40:57.119Z,23.80
2019-02-28T11:42:54.928Z,23.97
2019-02-28T11:44:58.534Z,24.27
2019-02-28T11:47:03.295Z,24.87
2019-02-28T11:49:07.158Z,23.63
2019-02-28T11:51:11.265Z,24.17
2019-02-28T11:53:14.816Z,23.17
2019-02-28T11:55:20.315Z,24.93
2019-02-28T11:57:24.098Z,22.07
2019-02-28T11:59:28.012Z,24.43
2019-02-28T12:01:31.914Z,23.67
2019-02-28T12:03:36.509Z,22.50
2019-02-28T12:05:40.447Z,23.27
2019-02-28T12:07:44.050Z,23.50
2019-02-28T12:09:47.628Z,23.60
2019-02-28T12:11:51.430Z,23.13
2019-02-28T12:13:56.073Z,22.40
2019-02-28T12:15:59.987Z,22.27
2019-02-28T12:18:04.873Z,22.70
2019-02-28T12:20:13.835Z,23.43
2019-02-28T12:22:17.834Z,22.30
2019-02-28T12:24:21.742Z,22.43
2019-02-28T12:26:25.649Z,22.67
2019-02-28T12:28:29.547Z,22.87
2019-02-28T12:30:34.487Z,23.13
2019-02-28T12:32:40.232Z,21.30
2019-02-28T12:34:43.537Z,22.17
2019-02-28T12:36:49.381Z,22.47
2019-02-28T12:38:52.764Z,21.30
2019-02-28T12:40:56.681Z,24.27
2019-02-28T12:43:00.578Z,22.97
2019-02-28T12:45:06.330Z,21.53
2019-02-28T12:47:10.236Z,20.77
2019-02-28T12:49:13.752Z,23.20
2019-02-28T12:51:17.642Z,20.40
2019-02-28T12:53:25.221Z,22.00
2019-02-28T12:55:27.066Z,21.23
2019-02-28T12:57:31.858Z,21.20
2019-02-28T12:59:35.389Z,21.80
2019-02-28T13:01:42.276Z,21.97
2019-02-28T13:03:46.184Z,21.73
2019-02-28T13:05:50.212Z,21.70
2019-02-28T13:07:54.091Z,22.23
2019-02-28T13:09:58.007Z,22.90
2019-02-28T13:12:01.565Z,22.20
2019-02-28T13:14:06.485Z,24.37
2019-02-28T13:16:10.454Z,23.93
2019-02-28T13:18:14.663Z,25.75
2019-02-28T13:20:34.755Z,24.03
2019-02-28T13:22:38.954Z,23.37
2019-02-28T13:24:46.233Z,25.07
2019-02-28T13:26:48.400Z,25.87
2019-02-28T13:28:54.599Z,23.83
2019-02-28T13:30:57.888Z,24.87
2019-02-28T13:33:01.400Z,25.50
2019-02-28T13:35:09.113Z,25.60
2019-02-28T13:37:12.643Z,25.73
2019-02-28T13:39:16.254Z,25.53
2019-02-28T13:41:22.093Z,24.70
2019-02-28T13:43:26.095Z,24.77
2019-02-28T13:45:29.806Z,25.47
2019-02-28T13:47:33.794Z,25.63
2019-02-28T13:49:38.545Z,24.67
2019-02-28T13:51:42.798Z,25.37
2019-02-28T13:53:46.844Z,23.13
2019-02-28T13:55:52.954Z,23.47
2019-02-28T13:57:56.293Z,23.07
2019-02-28T14:00:00.472Z,22.77
2019-02-28T14:02:04.443Z,23.03
2019-02-28T14:04:08.329Z,22.37
2019-02-28T14:06:18.747Z,23.63
2019-02-28T14:08:17.559Z,23.40
2019-02-28T14:10:22.132Z,23.33
2019-02-28T14:12:28.802Z,22.43
2019-02-28T14:14:32.335Z,22.50
2019-02-28T14:16:36.245Z,23.00
2019-02-28T14:18:42.534Z,22.30
2019-02-28T14:20:45.997Z,22.90
2019-02-28T14:22:49.821Z,21.90
2019-02-28T14:24:53.343Z,22.97
2019-02-28T14:26:56.881Z,21.23
2019-02-28T14:29:00.699Z,21.30
2019-02-28T14:31:04.323Z,20.80
2019-02-28T14:33:08.824Z,21.33
2019-02-28T14:35:16.004Z,22.13
2019-02-28T14:37:20.521Z,20.63
2019-02-28T14:39:24.433Z,22.00
2019-02-28T14:41:31.792Z,20.40
2019-02-28T14:43:33.980Z,20.27
2019-02-28T14:45:46.074Z,19.27
2019-02-28T14:47:56.916Z,18.60
2019-02-28T14:49:57.482Z,19.77
2019-02-28T14:52:03.619Z,20.33
2019-02-28T14:54:06.719Z,20.33
2019-02-28T14:56:10.344Z,19.50
2019-02-28T14:58:14.232Z,18.57
2019-02-28T15:00:20.908Z,19.70
2019-02-28T15:02:27.907Z,20.27
2019-02-28T15:04:30.060Z,19.93
2019-02-28T15:06:33.937Z,20.30
2019-02-28T15:08:37.944Z,20.30
2019-02-28T15:10:42.547Z,20.20
2019-02-28T15:12:46.331Z,20.30
2019-02-28T15:14:50.203Z,19.80
2019-02-28T15:16:53.777Z,21.70
2019-02-28T15:18:57.574Z,21.20
2019-02-28T15:21:01.394Z,23.40
2019-02-28T15:23:05.295Z,22.87
2019-02-28T15:25:15.297Z,23.43
2019-02-28T15:27:19.956Z,22.13
2019-02-28T15:29:24.616Z,21.43
2019-02-28T15:31:29.508Z,23.93
2019-02-28T15:33:33.423Z,22.60
2019-02-28T15:35:37.321Z,22.97
2019-02-28T15:37:41.236Z,22.90
2019-02-28T15:39:45.137Z,23.17
2019-02-28T15:41:49.046Z,25.23
2019-02-28T15:43:54.887Z,39.83
2019-02-28T15:45:58.443Z,47.07
2019-02-28T15:48:02.123Z,29.50
2019-02-28T15:50:09.564Z,26.13
2019-02-28T15:52:13.477Z,24.07
2019-02-28T15:54:17.393Z,24.23
2019-02-28T15:56:21.060Z,23.97
2019-02-28T15:58:26.520Z,24.97
2019-02-28T16:00:34.598Z,23.67
2019-02-28T16:02:38.660Z,18.03
2019-02-28T16:04:45.321Z,16.90
2019-02-28T16:06:56.626Z,15.87
2019-02-28T16:08:54.444Z,13.33
2019-02-28T16:10:58.242Z,13.37
2019-02-28T16:13:01.944Z,13.30
2019-02-28T16:15:11.995Z,14.67
2019-02-28T16:17:14.227Z,12.07
2019-02-28T16:19:18.843Z,15.07
2019-02-28T16:21:23.711Z,13.77
2019-02-28T16:23:30.759Z,12.10
2019-02-28T16:25:38.371Z,12.43
2019-02-28T16:27:42.209Z,12.60
2019-02-28T16:29:46.096Z,12.30
2019-02-28T16:31:49.643Z,13.90
2019-02-28T16:33:56.607Z,12.87
2019-02-28T16:35:59.564Z,13.30
2019-02-28T16:38:06.492Z,13.30
2019-02-28T16:40:20.781Z,14.03
2019-02-28T16:42:23.896Z,12.93
2019-02-28T16:44:30.895Z,14.33
2019-02-28T16:46:35.668Z,14.77
2019-02-28T16:48:39.579Z,12.63
2019-02-28T16:50:43.494Z,13.03
2019-02-28T16:52:47.015Z,13.33
2019-02-28T16:54:53.436Z,12.33
2019-02-28T16:56:56.129Z,12.55
2019-02-28T16:59:00.734Z,14.37
2019-02-28T17:01:05.056Z,12.13
2019-02-28T17:03:08.967Z,13.50
2019-02-28T17:05:13.131Z,13.35
2019-02-28T17:07:19.945Z,12.73
2019-02-28T17:09:26.622Z,13.08
2019-02-28T17:11:31.655Z,12.93
2019-02-28T17:13:38.721Z,12.47
2019-02-28T17:15:47.769Z,12.75
2019-02-28T17:17:56.571Z,12.33
2019-02-28T17:20:03.013Z,12.50
2019-02-28T17:22:06.553Z,12.83
2019-02-28T17:24:12.486Z,12.75
2019-02-28T17:26:16.697Z,13.45
2019-02-28T17:28:30.957Z,12.40
2019-02-28T17:30:37.040Z,12.23
2019-02-28T17:32:41.424Z,12.53
2019-02-28T17:34:45.269Z,11.50
2019-02-28T17:36:49.333Z,12.55
2019-02-28T17:38:53.751Z,12.33
2019-02-28T17:41:01.850Z,13.55
2019-02-28T17:43:04.875Z,12.43
2019-02-28T17:45:15.496Z,12.10
2019-02-28T17:47:29.466Z,11.28
2019-02-28T17:49:42.557Z,11.97
2019-02-28T17:51:55.555Z,11.63
2019-02-28T17:54:08.363Z,12.00
2019-02-28T17:56:27.062Z,12.60
2019-02-28T17:59:04.387Z,12.30
2019-02-28T18:01:45.217Z,13.03
2019-02-28T18:04:08.604Z,13.38
2019-02-28T18:06:35.623Z,13.13
2019-02-28T18:08:42.503Z,13.83
2019-02-28T18:10:59.186Z,12.82
2019-02-28T18:13:20.089Z,13.30
2019-02-28T18:15:45.947Z,14.10
2019-02-28T18:18:08.815Z,15.45
2019-02-28T18:20:35.401Z,15.05
2019-02-28T18:22:45.372Z,15.13
2019-02-28T18:25:09.231Z,15.38
2019-02-28T18:27:31.256Z,16.12
2019-02-28T18:30:02.923Z,16.55
2019-02-28T18:32:07.035Z,16.73
2019-02-28T18:34:10.817Z,16.90
2019-02-28T18:36:17.616Z,17.10
2019-02-28T18:38:21.756Z,16.52
2019-02-28T18:40:26.771Z,17.27
2019-02-28T18:42:30.965Z,16.55
2019-02-28T18:44:37.455Z,17.50
2019-02-28T18:46:41.244Z,17.70
2019-02-28T18:48:45.649Z,16.17
2019-02-28T18:50:51.443Z,17.00
2019-02-28T18:52:55.304Z,17.60
2019-02-28T18:55:05.978Z,18.55
2019-02-28T18:57:05.478Z,18.92
2019-02-28T18:59:09.666Z,20.00
2019-02-28T19:01:13.929Z,19.07
2019-02-28T19:03:18.118Z,20.77
2019-02-28T19:05:22.305Z,19.65
2019-02-28T19:07:26.399Z,20.23
2019-02-28T19:09:30.538Z,20.37
2019-02-28T19:11:34.948Z,19.35
2019-02-28T19:13:39.380Z,20.10
2019-02-28T19:15:45.120Z,18.98
2019-02-28T19:17:49.132Z,18.30
2019-02-28T19:19:53.238Z,17.87
2019-02-28T19:21:57.134Z,17.12
2019-02-28T19:24:03.378Z,17.45
2019-02-28T19:26:06.904Z,16.55
2019-02-28T19:28:11.104Z,15.72
2019-02-28T19:30:16.390Z,15.60
2019-02-28T19:32:21.804Z,16.45
2019-02-28T19:34:25.924Z,16.37
2019-02-28T19:36:30.134Z,15.55
2019-02-28T19:38:34.021Z,15.18
2019-02-28T19:40:38.129Z,16.05
2019-02-28T19:42:43.773Z,14.23
2019-02-28T19:44:47.986Z,15.03
2019-02-28T19:46:52.315Z,15.28
2019-02-28T19:48:56.504Z,14.53
2019-02-28T19:51:00.732Z,13.60
2019-02-28T19:53:04.720Z,13.13
2019-02-28T19:55:11.826Z,13.05
2019-02-28T19:57:15.687Z,14.05
2019-02-28T19:59:19.822Z,13.38
2019-02-28T20:01:24.048Z,13.38
2019-02-28T20:03:27.874Z,12.78
2019-02-28T20:05:32.168Z,12.60
2019-02-28T20:07:36.368Z,13.15
2019-02-28T20:09:40.185Z,12.60
2019-02-28T20:11:44.380Z,11.03
2019-02-28T20:13:48.535Z,12.03
2019-02-28T20:15:52.704Z,11.08
2019-02-28T20:17:57.046Z,10.78
2019-02-28T20:20:00.872Z,12.18
2019-02-28T20:22:05.473Z,11.38
2019-02-28T20:24:09.568Z,11.12
2019-02-28T20:26:13.396Z,11.08
2019-02-28T20:28:17.250Z,11.05
2019-02-28T20:30:23.453Z,10.63
2019-02-28T20:32:27.651Z,11.33
2019-02-28T20:34:31.506Z,10.58
2019-02-28T20:36:35.767Z,10.65
2019-02-28T20:38:39.982Z,10.10
2019-02-28T20:40:43.820Z,9.48
2019-02-28T20:42:48.042Z,9.23
2019-02-28T20:44:51.803Z,9.25
2019-02-28T20:46:56.106Z,10.07
2019-02-28T20:49:00.328Z,9.20
2019-02-28T20:51:04.541Z,8.43
2019-02-28T20:53:09.256Z,9.63
2019-02-28T20:55:13.071Z,8.18
2019-02-28T20:57:17.183Z,8.68
2019-02-28T20:59:21.490Z,8.63
2019-02-28T21:01:25.594Z,7.62
2019-02-28T21:03:29.806Z,8.43
2019-02-28T21:05:34.034Z,8.23
2019-02-28T21:07:38.150Z,7.73
2019-02-28T21:09:44.879Z,8.98
2019-02-28T21:11:48.154Z,7.47
2019-02-28T21:13:52.293Z,7.53
2019-02-28T21:15:56.419Z,7.65
2019-02-28T21:18:00.522Z,7.95
2019-02-28T21:20:07.691Z,7.70
2019-02-28T21:22:11.914Z,7.92
2019-02-28T21:24:16.028Z,7.83
2019-02-28T21:26:20.263Z,8.20
2019-02-28T21:28:24.344Z,8.30
2019-02-28T21:30:28.714Z,8.03
2019-02-28T21:32:32.870Z,8.28
2019-02-28T21:34:37.090Z,7.60
2019-02-28T21:36:41.282Z,7.30
2019-02-28T21:38:45.121Z,7.72
2019-02-28T21:40:49.346Z,7.37
2019-02-28T21:42:53.306Z,7.50
2019-02-28T21:44:57.424Z,7.60
2019-02-28T21:47:01.870Z,7.55
2019-02-28T21:49:05.780Z,6.87
2019-02-28T21:51:09.967Z,7.95
2019-02-28T21:53:13.956Z,8.63
2019-02-28T21:55:18.515Z,7.67
2019-02-28T21:57:22.767Z,7.45
2019-02-28T21:59:26.962Z,7.58
2019-02-28T22:01:30.785Z,7.58
2019-02-28T22:03:34.598Z,8.85
2019-02-28T22:05:38.753Z,7.42
2019-02-28T22:07:44.543Z,8.23
2019-02-28T22:09:48.814Z,8.40
2019-02-28T22:11:53.023Z,7.12
2019-02-28T22:13:57.148Z,8.85
2019-02-28T22:16:01.342Z,8.33
2019-02-28T22:18:05.558Z,8.90
2019-02-28T22:20:12.427Z,9.08
2019-02-28T22:22:16.657Z,9.40
2019-02-28T22:24:20.472Z,9.25
2019-02-28T22:26:24.370Z,9.98
2019-02-28T22:28:28.561Z,10.55
2019-02-28T22:30:40.549Z,9.65
2019-02-28T22:32:46.047Z,9.73
2019-02-28T22:34:51.860Z,10.25
2019-02-28T22:36:55.965Z,9.20
2019-02-28T22:39:00.174Z,9.60
2019-02-28T22:41:04.104Z,9.40
2019-02-28T22:43:08.299Z,9.68
2019-02-28T22:45:12.923Z,10.50
2019-02-28T22:47:17.121Z,9.38
2019-02-28T22:49:21.344Z,10.48
2019-02-28T22:51:25.460Z,9.48
2019-02-28T22:53:29.672Z,9.68
2019-02-28T22:55:33.865Z,8.95
2019-02-28T22:57:37.982Z,9.63
2019-02-28T22:59:41.825Z,9.05
2019-02-28T23:01:46.099Z,9.05
2019-02-28T23:03:50.320Z,9.30
2019-02-28T23:05:54.544Z,8.58
2019-02-28T23:07:58.746Z,8.70
2019-02-28T23:10:03.267Z,8.23
2019-02-28T23:12:07.491Z,8.05
2019-02-28T23:14:11.703Z,8.33
2019-02-28T23:16:15.899Z,7.65
2019-02-28T23:18:20.007Z,8.45
2019-02-28T23:20:24.112Z,8.73
2019-02-28T23:22:28.331Z,8.85
2019-02-28T23:24:32.443Z,7.90
2019-02-28T23:26:56.306Z,8.85
2019-02-28T23:29:03.508Z,7.80
2019-02-28T23:31:25.107Z,7.95
2019-02-28T23:33:29.631Z,7.95
2019-02-28T23:35:35.255Z,9.08
2019-02-28T23:37:39.386Z,7.17
2019-02-28T23:39:43.204Z,7.85
2019-02-28T23:41:47.428Z,7.80
2019-02-28T23:43:51.266Z,7.60
2019-02-28T23:45:55.428Z,7.72
2019-02-28T23:47:59.641Z,7.53
2019-02-28T23:50:05.193Z,7.12
2019-02-28T23:52:09.403Z,8.13
2019-02-28T23:54:13.607Z,7.58
2019-02-28T23:56:17.885Z,7.65
2019-02-28T23:58:22.042Z,7.70
